createdAt,value
2024-04-26T00:00:38.767Z,23.28
2024-04-26T00:01:38.836Z,23.28
2024-04-26T00:02:38.889Z,23.29
2024-04-26T00:03:38.872Z,23.28
2024-04-26T00:04:38.743Z,23.23
2024-04-26T00:05:39.005Z,23.20
2024-04-26T00:06:38.671Z,23.16
2024-04-26T00:07:38.673Z,23.08
2024-04-26T00:08:38.855Z,23.06
2024-04-26T00:09:38.690Z,23.02
2024-04-26T00:10:38.662Z,23.02
2024-04-26T00:11:38.716Z,23.06
2024-04-26T00:12:38.727Z,23.07
2024-04-26T00:13:38.620Z,23.07
2024-04-26T00:14:38.846Z,23.10
2024-04-26T00:15:38.555Z,23.13
2024-04-26T00:16:38.861Z,23.14
2024-04-26T00:17:38.661Z,23.17
2024-04-26T00:18:38.515Z,23.17
2024-04-26T00:19:38.520Z,23.17
2024-04-26T00:20:38.794Z,23.17
2024-04-26T00:21:38.511Z,23.16
2024-04-26T00:22:38.561Z,23.17
2024-04-26T00:23:38.544Z,23.16
2024-04-26T00:24:38.518Z,23.16
2024-04-26T00:25:38.545Z,23.16
2024-04-26T00:26:44.042Z,23.17
2024-04-26T00:27:38.443Z,23.14
2024-04-26T00:28:38.509Z,23.14
2024-04-26T00:29:38.534Z,23.14
2024-04-26T00:30:38.968Z,23.16
2024-04-26T00:31:38.533Z,23.16
2024-04-26T00:32:38.563Z,23.11
2024-04-26T00:33:38.555Z,23.07
2024-04-26T00:34:38.998Z,23.01
2024-04-26T00:35:38.466Z,22.99
2024-04-26T00:36:38.506Z,22.99
2024-04-26T00:37:38.407Z,23.01
2024-04-26T00:38:38.482Z,23.04
2024-04-26T00:39:38.320Z,23.04
2024-04-26T00:40:38.364Z,23.06
2024-04-26T00:41:39.020Z,23.02
2024-04-26T00:42:38.604Z,23.02
2024-04-26T00:43:38.297Z,23.04
2024-04-26T00:44:38.294Z,23.02
2024-04-26T00:45:38.326Z,23.01
2024-04-26T00:46:38.308Z,23.01
2024-04-26T00:47:38.419Z,23.06
2024-04-26T00:48:38.506Z,23.06
2024-04-26T00:49:38.228Z,23.06
2024-04-26T00:50:38.363Z,23.06
2024-04-26T00:51:38.179Z,23.04
2024-04-26T00:52:38.869Z,23.04
2024-04-26T00:53:38.273Z,23.02
2024-04-26T00:54:38.163Z,23.02
2024-04-26T00:55:38.182Z,22.99
2024-04-26T00:56:38.899Z,22.92
2024-04-26T00:57:38.194Z,22.86
2024-04-26T00:58:38.115Z,22.84
2024-04-26T00:59:38.152Z,22.81
2024-04-26T01:00:38.297Z,22.78
2024-04-26T01:01:38.045Z,22.80
2024-04-26T01:02:38.151Z,22.81
2024-04-26T01:03:38.116Z,22.80
2024-04-26T01:04:38.077Z,22.83
2024-04-26T01:05:38.153Z,22.83
2024-04-26T01:06:38.136Z,22.86
2024-04-26T01:07:37.957Z,22.91
2024-04-26T01:08:38.079Z,22.96
2024-04-26T01:09:37.983Z,23.06
2024-04-26T01:10:37.978Z,23.08
2024-04-26T01:11:38.147Z,23.17
2024-04-26T01:12:38.097Z,23.20
2024-04-26T01:13:37.896Z,23.26
2024-04-26T01:14:37.954Z,23.32
2024-04-26T01:15:37.935Z,23.34
2024-04-26T01:16:38.853Z,23.37
2024-04-26T01:17:37.982Z,23.44
2024-04-26T01:18:38.194Z,23.47
2024-04-26T01:19:38.026Z,23.48
2024-04-26T01:20:37.931Z,23.47
2024-04-26T01:21:37.926Z,23.51
2024-04-26T01:22:37.862Z,23.52
2024-04-26T01:23:37.861Z,23.48
2024-04-26T01:24:37.967Z,23.45
2024-04-26T01:25:37.889Z,23.45
2024-04-26T01:26:37.914Z,23.42
2024-04-26T01:27:37.867Z,23.44
2024-04-26T01:28:37.779Z,23.47
2024-04-26T01:29:37.728Z,23.48
2024-04-26T01:30:37.938Z,23.48
2024-04-26T01:31:37.715Z,23.49
2024-04-26T01:32:37.800Z,23.51
2024-04-26T01:33:37.843Z,23.51
2024-04-26T01:34:37.749Z,23.49
2024-04-26T01:35:37.725Z,23.48
2024-04-26T01:36:37.765Z,23.45
2024-04-26T01:37:37.669Z,23.45
2024-04-26T01:38:37.814Z,23.42
2024-04-26T01:39:37.786Z,23.34
2024-04-26T01:40:37.781Z,23.29
2024-04-26T01:41:37.631Z,23.23
2024-04-26T01:42:37.709Z,23.21
2024-04-26T01:43:37.655Z,23.21
2024-04-26T01:44:37.666Z,23.28
2024-04-26T01:45:37.719Z,23.28
2024-04-26T01:46:37.550Z,23.34
2024-04-26T01:47:37.769Z,23.39
2024-04-26T01:48:37.688Z,23.39
2024-04-26T01:49:37.563Z,23.44
2024-04-26T01:50:37.581Z,23.51
2024-04-26T01:51:37.656Z,23.56
2024-04-26T01:52:37.570Z,23.56
2024-04-26T01:53:37.621Z,23.56
2024-04-26T01:54:37.550Z,23.54
2024-04-26T01:55:37.874Z,23.48
2024-04-26T01:56:38.333Z,23.45
2024-04-26T01:57:37.471Z,23.40
2024-04-26T01:58:37.531Z,23.33
2024-04-26T01:59:37.576Z,23.33
2024-04-26T02:00:37.525Z,23.26
2024-04-26T02:01:37.909Z,23.20
2024-04-26T02:02:37.550Z,23.10
2024-04-26T02:03:37.481Z,23.01
2024-04-26T02:04:37.426Z,22.95
2024-04-26T02:05:37.375Z,22.93
2024-04-26T02:06:37.351Z,22.95
2024-04-26T02:07:37.568Z,22.98
2024-04-26T02:08:37.399Z,23.01
2024-04-26T02:09:37.385Z,23.06
2024-04-26T02:10:37.296Z,23.10
2024-04-26T02:11:37.651Z,23.17
2024-04-26T02:12:37.359Z,23.26
2024-04-26T02:13:37.521Z,23.32
2024-04-26T02:14:37.309Z,23.39
2024-04-26T02:15:37.250Z,23.45
2024-04-26T02:16:37.344Z,23.49
2024-04-26T02:17:37.308Z,23.56
2024-04-26T02:18:37.348Z,23.55
2024-04-26T02:19:37.391Z,23.56
2024-04-26T02:20:37.289Z,23.55
2024-04-26T02:21:37.218Z,23.52
2024-04-26T02:22:37.169Z,23.49
2024-04-26T02:23:37.209Z,23.48
2024-04-26T02:24:37.257Z,23.51
2024-04-26T02:25:37.210Z,23.55
2024-04-26T02:26:37.286Z,23.62
2024-04-26T02:27:37.196Z,23.63
2024-04-26T02:28:37.183Z,23.66
2024-04-26T02:29:37.220Z,23.69
2024-04-26T02:30:37.107Z,23.69
2024-04-26T02:31:37.196Z,23.70
2024-04-26T02:32:37.483Z,23.76
2024-04-26T02:33:37.167Z,23.79
2024-04-26T02:34:37.102Z,23.82
2024-04-26T02:35:37.171Z,23.84
2024-04-26T02:36:37.117Z,23.88
2024-04-26T02:37:37.042Z,23.86
2024-04-26T02:38:37.066Z,23.81
2024-04-26T02:39:36.975Z,23.81
2024-04-26T02:40:37.666Z,23.81
2024-04-26T02:41:37.085Z,23.82
2024-04-26T02:42:36.992Z,23.84
2024-04-26T02:43:37.003Z,23.84
2024-04-26T02:44:36.989Z,23.82
2024-04-26T02:45:36.973Z,23.88
2024-04-26T02:46:37.009Z,23.92
2024-04-26T02:47:37.165Z,23.95
2024-04-26T02:48:37.069Z,23.88
2024-04-26T02:49:36.898Z,23.81
2024-04-26T02:50:36.990Z,23.70
2024-04-26T02:51:36.931Z,23.63
2024-04-26T02:52:36.932Z,23.56
2024-04-26T02:53:36.852Z,23.48
2024-04-26T02:54:36.847Z,23.39
2024-04-26T02:55:36.839Z,23.32
2024-04-26T02:56:36.844Z,23.26
2024-04-26T02:57:36.785Z,23.20
2024-04-26T02:58:36.771Z,23.16
2024-04-26T02:59:36.817Z,23.10
2024-04-26T03:00:36.864Z,23.07
2024-04-26T03:01:36.833Z,23.06
2024-04-26T03:02:36.971Z,23.02
2024-04-26T03:03:36.953Z,23.01
2024-04-26T03:04:36.898Z,22.96
2024-04-26T03:05:36.836Z,22.96
2024-04-26T03:06:36.803Z,22.93
2024-04-26T03:07:36.713Z,22.92
2024-04-26T03:08:36.735Z,22.91
2024-04-26T03:09:36.835Z,22.88
2024-04-26T03:10:36.652Z,22.89
2024-04-26T03:11:36.808Z,22.89
2024-04-26T03:12:36.989Z,22.88
2024-04-26T03:13:36.754Z,22.83
2024-04-26T03:14:36.695Z,22.78
2024-04-26T03:15:36.588Z,22.76
2024-04-26T03:16:36.614Z,22.77
2024-04-26T03:17:36.808Z,22.80
2024-04-26T03:18:37.009Z,22.81
2024-04-26T03:19:36.630Z,22.84
2024-04-26T03:20:36.579Z,22.86
2024-04-26T03:21:36.626Z,22.84
2024-04-26T03:22:36.525Z,22.88
2024-04-26T03:23:36.579Z,22.84
2024-04-26T03:24:36.860Z,22.84
2024-04-26T03:25:36.650Z,22.81
2024-04-26T03:26:36.498Z,22.83
2024-04-26T03:27:36.457Z,22.84
2024-04-26T03:28:36.543Z,22.84
2024-04-26T03:29:36.521Z,22.81
2024-04-26T03:30:37.451Z,22.83
2024-04-26T03:31:36.579Z,22.84
2024-04-26T03:32:36.429Z,22.84
2024-04-26T03:33:36.584Z,22.84
2024-04-26T03:34:36.494Z,22.81
2024-04-26T03:35:36.556Z,22.78
2024-04-26T03:36:36.498Z,22.76
2024-04-26T03:37:36.619Z,22.77
2024-04-26T03:38:36.405Z,22.74
2024-04-26T03:39:36.422Z,22.74
2024-04-26T03:40:36.345Z,22.73
2024-04-26T03:41:36.356Z,22.71
2024-04-26T03:42:36.350Z,22.68
2024-04-26T03:43:36.485Z,22.63
2024-04-26T03:44:36.488Z,22.61
2024-04-26T03:45:36.278Z,22.59
2024-04-26T03:46:36.347Z,22.58
2024-04-26T03:47:36.502Z,22.55
2024-04-26T03:48:36.524Z,22.53
2024-04-26T03:49:37.300Z,22.49
2024-04-26T03:50:36.292Z,22.51
2024-04-26T03:51:36.193Z,22.52
2024-04-26T03:52:36.274Z,22.55
2024-04-26T03:53:36.368Z,22.58
2024-04-26T03:54:36.826Z,22.55
2024-04-26T03:55:36.189Z,22.53
2024-04-26T03:56:36.312Z,22.52
2024-04-26T03:57:36.337Z,22.52
2024-04-26T03:58:36.219Z,22.52
2024-04-26T03:59:36.296Z,22.53
2024-04-26T04:00:36.160Z,22.53
2024-04-26T04:01:36.196Z,22.55
2024-04-26T04:02:36.233Z,22.53
2024-04-26T04:03:36.285Z,22.56
2024-04-26T04:04:36.191Z,22.56
2024-04-26T04:05:36.164Z,22.55
2024-04-26T04:06:36.102Z,22.56
2024-04-26T04:07:36.065Z,22.56
2024-04-26T04:08:36.060Z,22.56
2024-04-26T04:09:36.220Z,22.55
2024-04-26T04:10:36.642Z,22.56
2024-04-26T04:11:36.191Z,22.58
2024-04-26T04:12:36.108Z,22.59
2024-04-26T04:13:36.074Z,22.59
2024-04-26T04:14:36.023Z,22.61
2024-04-26T04:15:35.964Z,22.63
2024-04-26T04:16:36.067Z,22.65
2024-04-26T04:17:37.065Z,22.65
2024-04-26T04:18:36.101Z,22.65
2024-04-26T04:19:38.097Z,22.65
2024-04-26T04:20:35.900Z,22.70
2024-04-26T04:21:35.896Z,22.67
2024-04-26T04:22:35.918Z,22.62
2024-04-26T04:23:35.967Z,22.61
2024-04-26T04:24:35.885Z,22.55
2024-04-26T04:25:35.830Z,22.53
2024-04-26T04:26:37.184Z,22.47
2024-04-26T04:27:35.870Z,22.46
2024-04-26T04:28:36.164Z,22.46
2024-04-26T04:29:35.879Z,22.43
2024-04-26T04:30:35.893Z,22.46
2024-04-26T04:31:35.772Z,22.49
2024-04-26T04:32:35.898Z,22.51
2024-04-26T04:33:35.917Z,22.47
2024-04-26T04:34:36.024Z,22.46
2024-04-26T04:35:35.846Z,22.44
2024-04-26T04:36:35.749Z,22.43
2024-04-26T04:37:35.759Z,22.41
2024-04-26T04:38:35.838Z,22.37
2024-04-26T04:39:35.724Z,22.38
2024-04-26T04:40:35.722Z,22.40
2024-04-26T04:41:35.726Z,22.41
2024-04-26T04:42:36.710Z,22.43
2024-04-26T04:43:35.745Z,22.43
2024-04-26T04:44:35.877Z,22.43
2024-04-26T04:45:35.728Z,22.43
2024-04-26T04:46:35.681Z,22.47
2024-04-26T04:47:35.901Z,22.49
2024-04-26T04:48:35.787Z,22.49
2024-04-26T04:49:35.657Z,22.47
2024-04-26T04:50:35.612Z,22.47
2024-04-26T04:51:35.669Z,22.46
2024-04-26T04:52:35.968Z,22.46
2024-04-26T04:53:38.526Z,22.43
2024-04-26T04:54:35.645Z,22.43
2024-04-26T04:55:35.495Z,22.40
2024-04-26T04:56:35.596Z,22.37
2024-04-26T04:57:35.576Z,22.36
2024-04-26T04:58:36.242Z,22.36
2024-04-26T04:59:36.596Z,22.36
2024-04-26T05:00:35.633Z,22.36
2024-04-26T05:01:35.521Z,22.38
2024-04-26T05:02:35.624Z,22.38
2024-04-26T05:03:35.655Z,22.38
2024-04-26T05:04:35.483Z,22.38
2024-04-26T05:05:35.579Z,22.40
2024-04-26T05:06:35.467Z,22.41
2024-04-26T05:07:35.455Z,22.37
2024-04-26T05:08:35.487Z,22.34
2024-04-26T05:09:35.474Z,22.28
2024-04-26T05:10:35.553Z,22.28
2024-04-26T05:11:35.485Z,22.23
2024-04-26T05:12:35.429Z,22.21
2024-04-26T05:13:35.318Z,22.18
2024-04-26T05:14:35.461Z,22.16
2024-04-26T05:15:35.375Z,22.14
2024-04-26T05:16:35.436Z,22.15
2024-04-26T05:17:35.574Z,22.15
2024-04-26T05:18:35.435Z,22.15
2024-04-26T05:19:35.487Z,22.14
2024-04-26T05:20:35.401Z,22.14
2024-04-26T05:21:35.366Z,22.14
2024-04-26T05:22:35.279Z,22.18
2024-04-26T05:23:35.324Z,22.21
2024-04-26T05:24:35.285Z,22.23
2024-04-26T05:25:35.279Z,22.22
2024-04-26T05:26:35.253Z,22.22
2024-04-26T05:27:35.204Z,22.22
2024-04-26T05:28:35.288Z,22.22
2024-04-26T05:29:35.211Z,22.21
2024-04-26T05:30:35.217Z,22.21
2024-04-26T05:31:35.237Z,22.19
2024-04-26T05:32:35.226Z,22.19
2024-04-26T05:33:35.553Z,22.22
2024-04-26T05:34:35.241Z,22.28
2024-04-26T05:35:35.126Z,22.33
2024-04-26T05:36:35.131Z,22.37
2024-04-26T05:37:38.310Z,22.40
2024-04-26T05:38:35.185Z,22.38
2024-04-26T05:39:35.115Z,22.37
2024-04-26T05:40:35.091Z,22.36
2024-04-26T05:41:35.184Z,22.33
2024-04-26T05:42:34.999Z,22.30
2024-04-26T05:43:35.097Z,22.26
2024-04-26T05:44:35.194Z,22.23
2024-04-26T05:45:35.017Z,22.23
2024-04-26T05:46:35.011Z,22.22
2024-04-26T05:47:35.149Z,22.15
2024-04-26T05:48:35.213Z,22.07
2024-04-26T05:49:35.140Z,22.04
2024-04-26T05:50:35.039Z,22.04
2024-04-26T05:51:35.006Z,22.06
2024-04-26T05:52:34.940Z,22.07
2024-04-26T05:53:34.972Z,22.08
2024-04-26T05:54:34.972Z,22.12
2024-04-26T05:55:34.972Z,22.15
2024-04-26T05:56:34.914Z,22.16
2024-04-26T05:57:34.903Z,22.19
2024-04-26T05:58:34.873Z,22.22
2024-04-26T05:59:34.928Z,22.25
2024-04-26T06:00:34.941Z,22.26
2024-04-26T06:01:34.814Z,22.28
2024-04-26T06:02:35.071Z,22.30
2024-04-26T06:03:34.925Z,22.26
2024-04-26T06:04:34.896Z,22.30
2024-04-26T06:05:34.796Z,22.33
2024-04-26T06:06:34.857Z,22.34
2024-04-26T06:07:34.759Z,22.34
2024-04-26T06:08:34.890Z,22.36
2024-04-26T06:09:34.771Z,22.37
2024-04-26T06:10:34.797Z,22.37
2024-04-26T06:11:34.762Z,22.38
2024-04-26T06:12:34.819Z,22.41
2024-04-26T06:13:34.796Z,22.41
2024-04-26T06:14:34.727Z,22.37
2024-04-26T06:15:34.776Z,22.36
2024-04-26T06:16:34.819Z,22.41
2024-04-26T06:17:34.887Z,22.38
2024-04-26T06:18:35.045Z,22.38
2024-04-26T06:19:34.778Z,22.43
2024-04-26T06:20:34.714Z,22.44
2024-04-26T06:21:34.618Z,22.46
2024-04-26T06:22:34.676Z,22.47
2024-04-26T06:23:34.675Z,22.47
2024-04-26T06:24:34.603Z,22.49
2024-04-26T06:25:34.762Z,22.51
2024-04-26T06:26:34.784Z,22.51
2024-04-26T06:27:34.622Z,22.51
2024-04-26T06:28:34.563Z,22.51
2024-04-26T06:29:34.550Z,22.52
2024-04-26T06:30:35.515Z,22.52
2024-04-26T06:31:34.538Z,22.51
2024-04-26T06:32:34.641Z,22.47
2024-04-26T06:33:34.593Z,22.44
2024-04-26T06:34:34.595Z,22.44
2024-04-26T06:35:34.509Z,22.47
2024-04-26T06:36:34.469Z,22.49
2024-04-26T06:37:34.487Z,22.49
2024-04-26T06:38:34.502Z,22.46
2024-04-26T06:39:34.381Z,22.44
2024-04-26T06:40:34.429Z,22.43
2024-04-26T06:41:34.416Z,22.41
2024-04-26T06:42:34.614Z,22.41
2024-04-26T06:43:34.432Z,22.41
2024-04-26T06:44:34.459Z,22.31
2024-04-26T06:45:34.319Z,22.23
2024-04-26T06:46:34.436Z,22.22
2024-04-26T06:47:34.814Z,22.18
2024-04-26T06:48:34.697Z,22.16
2024-04-26T06:49:34.475Z,22.16
2024-04-26T06:50:34.346Z,22.18
2024-04-26T06:51:34.325Z,22.16
2024-04-26T06:52:34.267Z,22.15
2024-04-26T06:53:34.410Z,22.19
2024-04-26T06:54:34.342Z,22.23
2024-04-26T06:55:34.424Z,22.22
2024-04-26T06:56:34.305Z,22.22
2024-04-26T06:57:34.193Z,22.22
2024-04-26T06:58:34.309Z,22.21
2024-04-26T06:59:34.302Z,22.19
2024-04-26T07:00:34.187Z,22.22
2024-04-26T07:01:34.502Z,22.23
2024-04-26T07:02:34.335Z,22.23
2024-04-26T07:03:34.249Z,22.25
2024-04-26T07:04:34.374Z,22.28
2024-04-26T07:05:34.411Z,22.30
2024-04-26T07:06:34.196Z,22.28
2024-04-26T07:07:34.178Z,22.26
2024-04-26T07:08:34.124Z,22.30
2024-04-26T07:09:34.097Z,22.30
2024-04-26T07:10:34.202Z,22.33
2024-04-26T07:11:34.174Z,22.36
2024-04-26T07:12:34.089Z,22.40
2024-04-26T07:13:34.065Z,22.41
2024-04-26T07:14:34.154Z,22.43
2024-04-26T07:15:34.050Z,22.43
2024-04-26T07:16:35.659Z,22.44
2024-04-26T07:17:34.294Z,22.44
2024-04-26T07:18:34.072Z,22.47
2024-04-26T07:19:34.172Z,22.46
2024-04-26T07:20:34.401Z,22.46
2024-04-26T07:21:33.972Z,22.47
2024-04-26T07:22:42.129Z,22.47
2024-04-26T07:23:34.044Z,22.51
2024-04-26T07:24:33.965Z,22.55
2024-04-26T07:25:33.990Z,22.56
2024-04-26T07:26:34.296Z,22.56
2024-04-26T07:27:34.055Z,22.59
2024-04-26T07:28:33.908Z,22.59
2024-04-26T07:29:34.030Z,22.59
2024-04-26T07:30:33.900Z,22.61
2024-04-26T07:31:33.958Z,22.61
2024-04-26T07:32:34.049Z,22.61
2024-04-26T07:33:33.960Z,22.59
2024-04-26T07:34:33.960Z,22.62
2024-04-26T07:35:33.899Z,22.61
2024-04-26T07:36:33.770Z,22.59
2024-04-26T07:37:33.874Z,22.55
2024-04-26T07:38:33.922Z,22.52
2024-04-26T07:39:33.906Z,22.52
2024-04-26T07:40:33.798Z,22.53
2024-04-26T07:41:33.812Z,22.52
2024-04-26T07:42:33.710Z,22.53
2024-04-26T07:43:33.704Z,22.52
2024-04-26T07:44:33.861Z,22.53
2024-04-26T07:45:34.024Z,22.52
2024-04-26T07:46:33.703Z,22.55
2024-04-26T07:47:33.811Z,22.52
2024-04-26T07:48:33.767Z,22.52
2024-04-26T07:49:33.878Z,22.49
2024-04-26T07:50:34.121Z,22.46
2024-04-26T07:51:33.668Z,22.44
2024-04-26T07:52:33.637Z,22.44
2024-04-26T07:53:33.675Z,22.46
2024-04-26T07:54:33.663Z,22.47
2024-04-26T07:55:33.578Z,22.51
2024-04-26T07:56:33.592Z,22.49
2024-04-26T07:57:33.611Z,22.49
2024-04-26T07:58:33.609Z,22.47
2024-04-26T07:59:33.616Z,22.49
2024-04-26T08:00:33.731Z,22.49
2024-04-26T08:01:33.545Z,22.52
2024-04-26T08:02:33.657Z,22.51
2024-04-26T08:03:33.930Z,22.53
2024-04-26T08:04:33.639Z,22.53
2024-04-26T08:05:33.678Z,22.55
2024-04-26T08:06:33.514Z,22.55
2024-04-26T08:07:33.459Z,22.58
2024-04-26T08:08:33.474Z,22.61
2024-04-26T08:09:33.471Z,22.61
2024-04-26T08:10:33.454Z,22.59
2024-04-26T08:11:33.553Z,22.53
2024-04-26T08:12:33.627Z,22.52
2024-04-26T08:13:33.512Z,22.49
2024-04-26T08:14:33.587Z,22.46
2024-04-26T08:15:33.526Z,22.47
2024-04-26T08:16:33.394Z,22.49
2024-04-26T08:17:33.492Z,22.51
2024-04-26T08:18:33.467Z,22.53
2024-04-26T08:19:33.328Z,22.55
2024-04-26T08:20:33.685Z,22.58
2024-04-26T08:21:33.428Z,22.61
2024-04-26T08:22:33.340Z,22.61
2024-04-26T08:23:33.524Z,22.49
2024-04-26T08:24:38.308Z,22.43
2024-04-26T08:25:33.368Z,22.40
2024-04-26T08:26:33.377Z,22.38
2024-04-26T08:27:34.921Z,22.38
2024-04-26T08:28:33.282Z,22.38
2024-04-26T08:29:33.240Z,22.40
2024-04-26T08:30:33.487Z,22.43
2024-04-26T08:31:33.228Z,22.46
2024-04-26T08:32:33.470Z,22.47
2024-04-26T08:33:33.470Z,22.49
2024-04-26T08:34:33.482Z,22.49
2024-04-26T08:35:33.764Z,22.51
2024-04-26T08:36:33.543Z,22.53
2024-04-26T08:37:33.666Z,22.55
2024-04-26T08:38:33.283Z,22.56
2024-04-26T08:39:35.213Z,22.53
2024-04-26T08:40:33.133Z,22.55
2024-04-26T08:41:33.176Z,22.53
2024-04-26T08:42:33.562Z,22.55
2024-04-26T08:43:33.167Z,22.55
2024-04-26T08:44:33.232Z,22.53
2024-04-26T08:45:33.212Z,22.53
2024-04-26T08:46:37.942Z,22.52
2024-04-26T08:47:33.437Z,22.55
2024-04-26T08:48:33.239Z,22.58
2024-04-26T08:49:33.260Z,22.63
2024-04-26T08:50:33.099Z,22.62
2024-04-26T08:51:33.119Z,22.63
2024-04-26T08:52:33.139Z,22.58
2024-04-26T08:53:32.978Z,22.51
2024-04-26T08:54:33.034Z,22.51
2024-04-26T08:55:33.090Z,22.49
2024-04-26T08:56:33.155Z,22.47
2024-04-26T08:57:33.558Z,22.49
2024-04-26T08:58:32.894Z,22.49
2024-04-26T08:59:33.126Z,22.51
2024-04-26T09:00:33.011Z,22.49
2024-04-26T09:01:33.103Z,22.49
2024-04-26T09:02:32.974Z,22.49
2024-04-26T09:03:32.994Z,22.52
2024-04-26T09:04:33.106Z,22.55
2024-04-26T09:05:33.442Z,22.53
2024-04-26T09:06:32.947Z,22.52
2024-04-26T09:07:32.860Z,22.51
2024-04-26T09:08:32.904Z,22.52
2024-04-26T09:09:32.886Z,22.53
2024-04-26T09:10:32.879Z,22.52
2024-04-26T09:11:32.990Z,22.53
2024-04-26T09:12:33.001Z,22.55
2024-04-26T09:13:32.897Z,22.53
2024-04-26T09:14:33.125Z,22.53
2024-04-26T09:15:32.993Z,22.55
2024-04-26T09:16:32.710Z,22.53
2024-04-26T09:17:33.045Z,22.53
2024-04-26T09:18:32.997Z,22.53
2024-04-26T09:19:32.844Z,22.51
2024-04-26T09:20:32.665Z,22.47
2024-04-26T09:21:32.708Z,22.40
2024-04-26T09:22:32.846Z,22.38
2024-04-26T09:23:32.894Z,22.37
2024-04-26T09:24:32.662Z,22.36
2024-04-26T09:25:32.659Z,22.37
2024-04-26T09:26:32.800Z,22.37
2024-04-26T09:27:32.650Z,22.38
2024-04-26T09:28:32.572Z,22.41
2024-04-26T09:29:32.683Z,22.38
2024-04-26T09:30:32.581Z,22.38
2024-04-26T09:31:32.514Z,22.38
2024-04-26T09:32:40.089Z,22.38
2024-04-26T09:33:33.061Z,22.43
2024-04-26T09:34:32.645Z,22.43
2024-04-26T09:35:33.182Z,22.41
2024-04-26T09:36:32.618Z,22.43
2024-04-26T09:37:32.624Z,22.44
2024-04-26T09:38:32.544Z,22.46
2024-04-26T09:39:32.541Z,22.46
2024-04-26T09:40:32.470Z,22.46
2024-04-26T09:41:32.487Z,22.44
2024-04-26T09:42:32.561Z,22.43
2024-04-26T09:43:32.471Z,22.40
2024-04-26T09:44:32.411Z,22.44
2024-04-26T09:45:32.486Z,22.46
2024-04-26T09:46:32.380Z,22.47
2024-04-26T09:47:32.560Z,22.49
2024-04-26T09:48:32.589Z,22.47
2024-04-26T09:49:32.672Z,22.47
2024-04-26T09:50:32.467Z,22.51
2024-04-26T09:51:38.144Z,22.52
2024-04-26T09:52:32.306Z,22.52
2024-04-26T09:53:32.456Z,22.55
2024-04-26T09:54:32.338Z,22.55
2024-04-26T09:55:32.474Z,22.56
2024-04-26T09:56:32.341Z,22.58
2024-04-26T09:57:32.310Z,22.58
2024-04-26T09:58:32.223Z,22.61
2024-04-26T09:59:32.265Z,22.61
2024-04-26T10:00:32.276Z,22.61
2024-04-26T10:01:32.230Z,22.58
2024-04-26T10:02:32.940Z,22.58
2024-04-26T10:03:32.363Z,22.58
2024-04-26T10:04:32.280Z,22.61
2024-04-26T10:05:32.353Z,22.56
2024-04-26T10:06:32.254Z,22.55
2024-04-26T10:07:32.108Z,22.56
2024-04-26T10:08:32.184Z,22.56
2024-04-26T10:09:32.199Z,22.56
2024-04-26T10:10:32.368Z,22.56
2024-04-26T10:11:35.542Z,22.53
2024-04-26T10:12:32.170Z,22.51
2024-04-26T10:13:32.152Z,22.49
2024-04-26T10:14:32.394Z,22.49
2024-04-26T10:15:32.136Z,22.51
2024-04-26T10:16:32.584Z,22.51
2024-04-26T10:17:32.243Z,22.49
2024-04-26T10:18:32.161Z,22.46
2024-04-26T10:19:32.104Z,22.46
2024-04-26T10:20:32.103Z,22.46
2024-04-26T10:21:32.586Z,22.47
2024-04-26T10:22:32.028Z,22.47
2024-04-26T10:23:32.084Z,22.49
2024-04-26T10:24:31.936Z,22.49
2024-04-26T10:25:32.053Z,22.55
2024-04-26T10:26:31.965Z,22.56
2024-04-26T10:27:32.139Z,22.56
2024-04-26T10:28:31.961Z,22.58
2024-04-26T10:29:32.047Z,22.59
2024-04-26T10:30:31.924Z,22.61
2024-04-26T10:31:32.071Z,22.62
2024-04-26T10:32:32.075Z,22.63
2024-04-26T10:33:31.986Z,22.67
2024-04-26T10:34:31.996Z,22.70
2024-04-26T10:35:31.874Z,22.73
2024-04-26T10:36:31.851Z,22.74
2024-04-26T10:37:31.958Z,22.74
2024-04-26T10:38:31.913Z,22.74
2024-04-26T10:39:31.775Z,22.71
2024-04-26T10:40:32.050Z,22.73
2024-04-26T10:41:31.728Z,22.73
2024-04-26T10:42:31.797Z,22.76
2024-04-26T10:43:31.938Z,22.78
2024-04-26T10:44:31.765Z,22.83
2024-04-26T10:45:31.803Z,22.78
2024-04-26T10:46:31.740Z,22.77
2024-04-26T10:47:31.777Z,22.78
2024-04-26T10:48:31.796Z,22.80
2024-04-26T10:49:31.936Z,22.83
2024-04-26T10:50:31.726Z,22.84
2024-04-26T10:51:31.672Z,22.83
2024-04-26T10:52:31.890Z,22.84
2024-04-26T10:53:31.653Z,22.86
2024-04-26T10:54:31.699Z,22.84
2024-04-26T10:55:31.699Z,22.84
2024-04-26T10:56:31.742Z,22.83
2024-04-26T10:57:31.701Z,22.86
2024-04-26T10:58:31.616Z,22.91
2024-04-26T10:59:31.647Z,22.93
2024-04-26T11:00:31.880Z,22.98
2024-04-26T11:01:31.683Z,23.01
2024-04-26T11:02:31.760Z,23.04
2024-04-26T11:03:31.819Z,23.08
2024-04-26T11:04:31.736Z,23.11
2024-04-26T11:05:31.602Z,23.14
2024-04-26T11:06:31.850Z,23.18
2024-04-26T11:07:31.514Z,23.23
2024-04-26T11:08:31.847Z,23.28
2024-04-26T11:09:31.593Z,23.25
2024-04-26T11:10:31.542Z,23.21
2024-04-26T11:11:31.705Z,23.18
2024-04-26T11:12:31.867Z,23.18
2024-04-26T11:13:31.527Z,23.17
2024-04-26T11:14:31.454Z,23.17
2024-04-26T11:15:31.508Z,23.17
2024-04-26T11:16:31.438Z,23.16
2024-04-26T11:17:31.498Z,23.14
2024-04-26T11:18:31.614Z,23.16
2024-04-26T11:19:31.850Z,23.18
2024-04-26T11:20:31.779Z,23.23
2024-04-26T11:21:31.371Z,23.26
2024-04-26T11:22:31.365Z,23.32
2024-04-26T11:23:31.398Z,23.40
2024-04-26T11:24:31.384Z,23.45
2024-04-26T11:25:31.788Z,23.40
2024-04-26T11:26:31.914Z,23.39
2024-04-26T11:27:32.232Z,23.37
2024-04-26T11:28:31.315Z,23.42
2024-04-26T11:29:31.665Z,23.44
2024-04-26T11:30:31.415Z,23.47
2024-04-26T11:31:31.736Z,23.51
2024-04-26T11:32:31.714Z,23.52
2024-04-26T11:33:41.670Z,23.59
2024-04-26T11:34:33.408Z,23.66
2024-04-26T11:35:33.313Z,23.73
2024-04-26T11:36:32.282Z,23.84
2024-04-26T11:37:31.754Z,23.88
2024-04-26T11:38:33.232Z,23.91
2024-04-26T11:39:31.606Z,23.91
2024-04-26T11:40:31.276Z,23.89
2024-04-26T11:41:33.011Z,23.88
2024-04-26T11:42:31.402Z,23.86
2024-04-26T11:43:31.440Z,23.85
2024-04-26T11:44:31.864Z,23.88
2024-04-26T11:45:31.420Z,23.94
2024-04-26T11:46:31.337Z,23.94
2024-04-26T11:47:32.072Z,23.92
2024-04-26T11:48:32.139Z,23.92
2024-04-26T11:49:33.103Z,23.89
2024-04-26T11:50:31.186Z,23.94
2024-04-26T11:51:31.512Z,23.89
2024-04-26T11:52:31.244Z,23.84
2024-04-26T11:53:31.069Z,23.81
2024-04-26T11:54:31.150Z,23.79
2024-04-26T11:55:31.173Z,23.82
2024-04-26T11:56:31.436Z,23.88
2024-04-26T11:57:31.246Z,23.89
2024-04-26T11:58:30.918Z,23.89
2024-04-26T11:59:31.135Z,23.91
2024-04-26T12:00:32.470Z,23.94
2024-04-26T12:01:31.151Z,23.91
2024-04-26T12:02:31.233Z,23.88
2024-04-26T12:03:31.595Z,23.88
2024-04-26T12:04:30.964Z,23.89
2024-04-26T12:05:31.248Z,23.86
2024-04-26T12:06:31.171Z,23.88
2024-04-26T12:07:30.980Z,23.92
2024-04-26T12:08:38.627Z,23.92
2024-04-26T12:09:30.987Z,23.96
2024-04-26T12:10:31.670Z,24.10
2024-04-26T12:11:31.059Z,24.13
2024-04-26T12:12:30.833Z,24.14
2024-04-26T12:13:30.818Z,24.14
2024-04-26T12:14:30.802Z,24.13
2024-04-26T12:15:31.080Z,24.16
2024-04-26T12:16:30.906Z,24.16
2024-04-26T12:17:30.836Z,24.18
2024-04-26T12:18:30.838Z,24.19
2024-04-26T12:19:30.702Z,24.18
2024-04-26T12:20:33.471Z,24.18
2024-04-26T12:21:30.811Z,24.19
2024-04-26T12:22:30.787Z,24.22
2024-04-26T12:23:30.797Z,24.22
2024-04-26T12:24:30.765Z,24.21
2024-04-26T12:25:30.661Z,24.21
2024-04-26T12:26:31.279Z,24.21
2024-04-26T12:27:30.689Z,24.24
2024-04-26T12:28:30.695Z,24.31
2024-04-26T12:29:30.594Z,24.31
2024-04-26T12:30:30.614Z,24.29
2024-04-26T12:31:30.588Z,24.28
2024-04-26T12:32:30.716Z,24.31
2024-04-26T12:33:30.756Z,24.41
2024-04-26T12:34:30.758Z,24.47
2024-04-26T12:35:30.829Z,24.56
2024-04-26T12:36:30.544Z,24.65
2024-04-26T12:37:30.865Z,24.68
2024-04-26T12:38:30.582Z,24.71
2024-04-26T12:39:30.463Z,24.77
2024-04-26T12:40:30.900Z,24.82
2024-04-26T12:41:30.466Z,24.93
2024-04-26T12:42:30.495Z,24.93
2024-04-26T12:43:30.889Z,24.93
2024-04-26T12:44:30.728Z,24.97
2024-04-26T12:45:30.504Z,25.07
2024-04-26T12:46:30.587Z,25.16
2024-04-26T12:47:30.598Z,25.22
2024-04-26T12:48:30.648Z,25.26
2024-04-26T12:49:30.576Z,25.24
2024-04-26T12:50:30.427Z,25.16
2024-04-26T12:51:30.418Z,25.04
2024-04-26T12:52:30.363Z,25.00